sensor_id;sensor_type;location;lat;lon;timestamp;temperature;humidity
12335;DHT22;6233;51.560;9.986;2022-11-20T00:01:39;-3.60;99.90
12335;DHT22;6233;51.560;9.986;2022-11-20T00:04:41;-3.50;99.90
12335;DHT22;6233;51.560;9.986;2022-11-20T00:07:43;-3.60;99.90
12335;DHT22;6233;51.560;9.986;2022-11-20T00:10:45;-3.50;99.90
12335;DHT22;6233;51.560;9.986;2022-11-20T00:13:52;-3.20;99.90
12335;DHT22;6233;51.560;9.986;2022-11-20T00:16:54;-3.60;99.90
12335;DHT22;6233;51.560;9.986;2022-11-20T00:19:56;-3.80;99.90
12335;DHT22;6233;51.560;9.986;2022-11-20T00:22:58;-3.70;99.90
12335;DHT22;6233;51.560;9.986;2022-11-20T00:26:05;-3.10;99.90
12335;DHT22;6233;51.560;9.986;2022-11-20T00:29:09;-3.60;99.90
12335;DHT22;6233;51.560;9.986;2022-11-20T00:32:11;-3.90;99.90
12335;DHT22;6233;51.560;9.986;2022-11-20T00:35:13;-3.70;99.90
12335;DHT22;6233;51.560;9.986;2022-11-20T00:38:15;-3.80;99.90
12335;DHT22;6233;51.560;9.986;2022-11-20T00:41:16;-3.80;99.90
12335;DHT22;6233;51.560;9.986;2022-11-20T00:44:18;-3.80;99.90
12335;DHT22;6233;51.560;9.986;2022-11-20T00:47:20;-3.80;99.90
12335;DHT22;6233;51.560;9.986;2022-11-20T00:50:25;-3.80;99.90
12335;DHT22;6233;51.560;9.986;2022-11-20T00:53:27;-3.70;99.90
12335;DHT22;6233;51.560;9.986;2022-11-20T00:56:29;-3.30;99.90
12335;DHT22;6233;51.560;9.986;2022-11-20T00:59:31;-3.90;99.90
12335;DHT22;6233;51.560;9.986;2022-11-20T01:02:33;-3.80;99.90
12335;DHT22;6233;51.560;9.986;2022-11-20T01:05:35;-3.90;99.90
12335;DHT22;6233;51.560;9.986;2022-11-20T01:08:38;-4.00;99.90
12335;DHT22;6233;51.560;9.986;2022-11-20T01:11:44;-3.90;99.90
12335;DHT22;6233;51.560;9.986;2022-11-20T01:14:47;-4.00;99.90
12335;DHT22;6233;51.560;9.986;2022-11-20T01:17:48;-4.10;99.90
12335;DHT22;6233;51.560;9.986;2022-11-20T01:20:50;-4.00;99.90
12335;DHT22;6233;51.560;9.986;2022-11-20T01:23:52;-4.20;99.90
12335;DHT22;6233;51.560;9.986;2022-11-20T01:26:54;-4.10;99.90
12335;DHT22;6233;51.560;9.986;2022-11-20T01:29:56;-3.70;99.90
12335;DHT22;6233;51.560;9.986;2022-11-20T01:33:01;-4.10;99.90
12335;DHT22;6233;51.560;9.986;2022-11-20T01:36:07;-4.10;99.90
12335;DHT22;6233;51.560;9.986;2022-11-20T01:39:15;-4.10;99.90
12335;DHT22;6233;51.560;9.986;2022-11-20T01:42:17;-4.10;99.90
12335;DHT22;6233;51.560;9.986;2022-11-20T01:48:59;-4.10;99.90
12335;DHT22;6233;51.560;9.986;2022-11-20T01:52:12;-4.20;99.90
12335;DHT22;6233;51.560;9.986;2022-11-20T01:55:19;-4.20;99.90
12335;DHT22;6233;51.560;9.986;2022-11-20T01:58:32;-4.30;99.90
12335;DHT22;6233;51.560;9.986;2022-11-20T02:01:35;-4.30;99.90
12335;DHT22;6233;51.560;9.986;2022-11-20T02:04:37;-4.30;99.90
12335;DHT22;6233;51.560;9.986;2022-11-20T02:07:40;-4.40;99.90
12335;DHT22;6233;51.560;9.986;2022-11-20T02:10:42;-4.40;99.90
12335;DHT22;6233;51.560;9.986;2022-11-20T02:13:45;-4.40;99.90
12335;DHT22;6233;51.560;9.986;2022-11-20T02:16:48;-4.40;99.90
12335;DHT22;6233;51.560;9.986;2022-11-20T02:19:51;-4.40;99.90
12335;DHT22;6233;51.560;9.986;2022-11-20T02:23:04;-4.40;99.90
12335;DHT22;6233;51.560;9.986;2022-11-20T02:26:10;-4.40;99.90
12335;DHT22;6233;51.560;9.986;2022-11-20T02:29:15;-4.40;99.90
12335;DHT22;6233;51.560;9.986;2022-11-20T02:32:21;-4.40;99.90
12335;DHT22;6233;51.560;9.986;2022-11-20T02:38:24;-4.40;99.90
12335;DHT22;6233;51.560;9.986;2022-11-20T02:41:36;-4.40;99.90
12335;DHT22;6233;51.560;9.986;2022-11-20T02:44:38;-4.40;99.90
12335;DHT22;6233;51.560;9.986;2022-11-20T02:47:41;-4.40;99.90
12335;DHT22;6233;51.560;9.986;2022-11-20T02:50:43;-4.30;99.90
12335;DHT22;6233;51.560;9.986;2022-11-20T02:53:45;-4.50;99.90
12335;DHT22;6233;51.560;9.986;2022-11-20T02:56:46;-4.50;99.90
12335;DHT22;6233;51.560;9.986;2022-11-20T02:59:48;-4.60;99.90
12335;DHT22;6233;51.560;9.986;2022-11-20T03:02:50;-4.50;99.90
12335;DHT22;6233;51.560;9.986;2022-11-20T03:05:52;-4.50;99.90
12335;DHT22;6233;51.560;9.986;2022-11-20T03:08:54;-4.50;99.90
12335;DHT22;6233;51.560;9.986;2022-11-20T03:11:56;-4.50;99.90
12335;DHT22;6233;51.560;9.986;2022-11-20T03:14:58;-4.50;99.90
12335;DHT22;6233;51.560;9.986;2022-11-20T03:17:59;-4.60;99.90
12335;DHT22;6233;51.560;9.986;2022-11-20T03:21:01;-4.60;99.90
12335;DHT22;6233;51.560;9.986;2022-11-20T03:24:03;-4.60;99.90
12335;DHT22;6233;51.560;9.986;2022-11-20T03:27:05;-4.60;99.90
12335;DHT22;6233;51.560;9.986;2022-11-20T03:30:07;-4.60;99.90
12335;DHT22;6233;51.560;9.986;2022-11-20T03:33:09;-4.60;99.90
12335;DHT22;6233;51.560;9.986;2022-11-20T03:36:13;-4.70;99.90
12335;DHT22;6233;51.560;9.986;2022-11-20T03:39:17;-4.80;99.90
12335;DHT22;6233;51.560;9.986;2022-11-20T03:42:19;-4.80;99.90
12335;DHT22;6233;51.560;9.986;2022-11-20T03:45:39;-4.90;99.90
12335;DHT22;6233;51.560;9.986;2022-11-20T03:48:41;-4.80;99.90
12335;DHT22;6233;51.560;9.986;2022-11-20T03:51:49;-4.80;99.90
12335;DHT22;6233;51.560;9.986;2022-11-20T03:54:51;-4.80;99.90
12335;DHT22;6233;51.560;9.986;2022-11-20T03:57:52;-4.90;99.90
12335;DHT22;6233;51.560;9.986;2022-11-20T04:00:54;-4.80;99.90
12335;DHT22;6233;51.560;9.986;2022-11-20T04:03:56;-4.90;99.90
12335;DHT22;6233;51.560;9.986;2022-11-20T04:06:58;-4.90;99.90
12335;DHT22;6233;51.560;9.986;2022-11-20T04:10:00;-4.90;99.90
12335;DHT22;6233;51.560;9.986;2022-11-20T04:13:02;-4.90;99.90
12335;DHT22;6233;51.560;9.986;2022-11-20T04:16:05;-4.90;99.90
12335;DHT22;6233;51.560;9.986;2022-11-20T04:19:12;-4.90;99.90
12335;DHT22;6233;51.560;9.986;2022-11-20T04:22:14;-4.50;99.90
12335;DHT22;6233;51.560;9.986;2022-11-20T04:25:16;-5.10;99.90
12335;DHT22;6233;51.560;9.986;2022-11-20T04:28:18;-4.90;99.90
12335;DHT22;6233;51.560;9.986;2022-11-20T04:31:22;-5.00;99.90
12335;DHT22;6233;51.560;9.986;2022-11-20T04:34:24;-5.00;99.90
12335;DHT22;6233;51.560;9.986;2022-11-20T04:37:26;-5.10;99.90
12335;DHT22;6233;51.560;9.986;2022-11-20T04:40:28;-4.60;99.90
12335;DHT22;6233;51.560;9.986;2022-11-20T04:43:31;-5.00;99.90
12335;DHT22;6233;51.560;9.986;2022-11-20T04:46:36;-4.90;99.90
12335;DHT22;6233;51.560;9.986;2022-11-20T04:49:38;-4.90;99.90
12335;DHT22;6233;51.560;9.986;2022-11-20T04:52:39;-5.00;99.90
12335;DHT22;6233;51.560;9.986;2022-11-20T04:55:41;-4.90;99.90
12335;DHT22;6233;51.560;9.986;2022-11-20T04:58:43;-4.90;99.90
12335;DHT22;6233;51.560;9.986;2022-11-20T05:01:45;-4.90;99.90
12335;DHT22;6233;51.560;9.986;2022-11-20T05:04:47;-5.00;99.90
12335;DHT22;6233;51.560;9.986;2022-11-20T05:07:49;-4.70;99.90
12335;DHT22;6233;51.560;9.986;2022-11-20T05:10:51;-5.00;99.90
12335;DHT22;6233;51.560;9.986;2022-11-20T05:13:53;-5.10;99.90
12335;DHT22;6233;51.560;9.986;2022-11-20T05:16:55;-5.10;99.90
12335;DHT22;6233;51.560;9.986;2022-11-20T05:19:57;-5.20;99.90
12335;DHT22;6233;51.560;9.986;2022-11-20T05:22:59;-5.20;99.90
12335;DHT22;6233;51.560;9.986;2022-11-20T05:26:01;-5.20;99.90
12335;DHT22;6233;51.560;9.986;2022-11-20T05:29:03;-5.20;99.90
12335;DHT22;6233;51.560;9.986;2022-11-20T05:32:05;-5.20;99.90
12335;DHT22;6233;51.560;9.986;2022-11-20T05:35:08;-5.30;99.90
12335;DHT22;6233;51.560;9.986;2022-11-20T05:38:10;-5.20;99.90
12335;DHT22;6233;51.560;9.986;2022-11-20T05:41:14;-5.20;99.90
12335;DHT22;6233;51.560;9.986;2022-11-20T05:44:16;-5.30;99.90
12335;DHT22;6233;51.560;9.986;2022-11-20T05:47:18;-5.30;99.90
12335;DHT22;6233;51.560;9.986;2022-11-20T05:50:20;-5.30;99.90
12335;DHT22;6233;51.560;9.986;2022-11-20T05:53:21;-5.10;99.90
12335;DHT22;6233;51.560;9.986;2022-11-20T05:56:23;-5.40;99.90
12335;DHT22;6233;51.560;9.986;2022-11-20T05:59:25;-5.40;99.90
12335;DHT22;6233;51.560;9.986;2022-11-20T06:02:27;-5.30;99.90
12335;DHT22;6233;51.560;9.986;2022-11-20T06:05:29;-5.40;99.90
12335;DHT22;6233;51.560;9.986;2022-11-20T06:08:31;-5.30;99.90
12335;DHT22;6233;51.560;9.986;2022-11-20T06:11:33;-5.30;99.90
12335;DHT22;6233;51.560;9.986;2022-11-20T06:14:35;-5.30;99.90
12335;DHT22;6233;51.560;9.986;2022-11-20T06:17:36;-5.10;99.90
12335;DHT22;6233;51.560;9.986;2022-11-20T06:20:38;-5.30;99.90
12335;DHT22;6233;51.560;9.986;2022-11-20T06:23:43;-5.40;99.90
12335;DHT22;6233;51.560;9.986;2022-11-20T06:26:46;-5.30;99.90
12335;DHT22;6233;51.560;9.986;2022-11-20T06:29:48;-5.30;99.90
12335;DHT22;6233;51.560;9.986;2022-11-20T06:32:51;-5.30;99.90
12335;DHT22;6233;51.560;9.986;2022-11-20T06:35:56;-5.30;99.90
12335;DHT22;6233;51.560;9.986;2022-11-20T06:39:03;-5.30;99.90
12335;DHT22;6233;51.560;9.986;2022-11-20T06:42:16;-5.30;99.90
12335;DHT22;6233;51.560;9.986;2022-11-20T06:45:17;-5.30;99.90
12335;DHT22;6233;51.560;9.986;2022-11-20T06:48:20;-5.30;99.90
12335;DHT22;6233;51.560;9.986;2022-11-20T06:51:22;-5.40;99.90
12335;DHT22;6233;51.560;9.986;2022-11-20T06:54:23;-5.30;99.90
12335;DHT22;6233;51.560;9.986;2022-11-20T06:57:25;-5.30;99.90
12335;DHT22;6233;51.560;9.986;2022-11-20T07:00:27;-5.10;99.90
12335;DHT22;6233;51.560;9.986;2022-11-20T07:03:29;-5.10;99.90
12335;DHT22;6233;51.560;9.986;2022-11-20T07:06:31;-5.30;99.90
12335;DHT22;6233;51.560;9.986;2022-11-20T07:09:33;-5.20;99.90
12335;DHT22;6233;51.560;9.986;2022-11-20T07:12:35;-5.30;99.90
12335;DHT22;6233;51.560;9.986;2022-11-20T07:15:37;-5.20;99.90
12335;DHT22;6233;51.560;9.986;2022-11-20T07:18:39;-5.20;99.90
12335;DHT22;6233;51.560;9.986;2022-11-20T07:21:40;-5.20;99.90
12335;DHT22;6233;51.560;9.986;2022-11-20T07:24:42;-5.10;99.90
12335;DHT22;6233;51.560;9.986;2022-11-20T07:27:46;-5.10;99.90
12335;DHT22;6233;51.560;9.986;2022-11-20T07:30:52;-5.00;99.90
12335;DHT22;6233;51.560;9.986;2022-11-20T07:33:54;-4.90;99.90
12335;DHT22;6233;51.560;9.986;2022-11-20T07:36:56;-4.80;99.90
12335;DHT22;6233;51.560;9.986;2022-11-20T07:39:57;-4.80;99.90
12335;DHT22;6233;51.560;9.986;2022-11-20T07:42:59;-4.70;99.90
12335;DHT22;6233;51.560;9.986;2022-11-20T07:46:01;-4.60;99.90
12335;DHT22;6233;51.560;9.986;2022-11-20T07:49:03;-4.60;99.90
12335;DHT22;6233;51.560;9.986;2022-11-20T07:52:05;-4.50;99.90
12335;DHT22;6233;51.560;9.986;2022-11-20T07:55:08;-4.40;99.90
12335;DHT22;6233;51.560;9.986;2022-11-20T07:58:26;-4.40;99.90
12335;DHT22;6233;51.560;9.986;2022-11-20T08:01:28;-4.40;99.90
12335;DHT22;6233;51.560;9.986;2022-11-20T08:04:29;-4.40;99.90
12335;DHT22;6233;51.560;9.986;2022-11-20T08:07:39;-4.30;99.90
12335;DHT22;6233;51.560;9.986;2022-11-20T08:10:41;-4.10;99.90
12335;DHT22;6233;51.560;9.986;2022-11-20T08:13:43;-4.10;99.90
12335;DHT22;6233;51.560;9.986;2022-11-20T08:17:03;-4.00;99.90
12335;DHT22;6233;51.560;9.986;2022-11-20T08:20:05;-4.00;99.90
12335;DHT22;6233;51.560;9.986;2022-11-20T08:23:08;-3.80;99.90
12335;DHT22;6233;51.560;9.986;2022-11-20T08:26:09;-3.90;99.90
12335;DHT22;6233;51.560;9.986;2022-11-20T08:29:12;-3.80;99.90
12335;DHT22;6233;51.560;9.986;2022-11-20T08:32:13;-3.70;99.90
12335;DHT22;6233;51.560;9.986;2022-11-20T08:35:15;-3.70;99.90
12335;DHT22;6233;51.560;9.986;2022-11-20T08:38:17;-3.70;99.90
12335;DHT22;6233;51.560;9.986;2022-11-20T08:41:21;-3.60;99.90
12335;DHT22;6233;51.560;9.986;2022-11-20T08:44:27;-3.40;99.90
12335;DHT22;6233;51.560;9.986;2022-11-20T08:47:28;-3.50;99.90
12335;DHT22;6233;51.560;9.986;2022-11-20T08:50:31;-3.50;99.90
12335;DHT22;6233;51.560;9.986;2022-11-20T08:53:34;-3.30;99.90
12335;DHT22;6233;51.560;9.986;2022-11-20T08:56:36;-3.30;99.90
12335;DHT22;6233;51.560;9.986;2022-11-20T08:59:38;-3.20;99.90
12335;DHT22;6233;51.560;9.986;2022-11-20T09:03:01;-3.20;99.90
12335;DHT22;6233;51.560;9.986;2022-11-20T09:06:06;-3.10;99.90
12335;DHT22;6233;51.560;9.986;2022-11-20T09:09:08;-3.10;99.90
12335;DHT22;6233;51.560;9.986;2022-11-20T09:12:10;-3.00;99.90
12335;DHT22;6233;51.560;9.986;2022-11-20T09:15:11;-2.90;99.90
12335;DHT22;6233;51.560;9.986;2022-11-20T09:18:14;-2.80;99.90
12335;DHT22;6233;51.560;9.986;2022-11-20T09:21:16;-2.70;99.90
12335;DHT22;6233;51.560;9.986;2022-11-20T09:24:21;-2.60;99.90
12335;DHT22;6233;51.560;9.986;2022-11-20T09:27:23;-2.40;99.90
12335;DHT22;6233;51.560;9.986;2022-11-20T09:30:25;-2.50;99.90
12335;DHT22;6233;51.560;9.986;2022-11-20T09:33:27;-2.50;99.90
12335;DHT22;6233;51.560;9.986;2022-11-20T09:36:29;-2.50;99.90
12335;DHT22;6233;51.560;9.986;2022-11-20T09:39:31;-2.40;99.90
12335;DHT22;6233;51.560;9.986;2022-11-20T09:46:07;-2.10;99.90
12335;DHT22;6233;51.560;9.986;2022-11-20T09:55:50;-1.30;99.90
12335;DHT22;6233;51.560;9.986;2022-11-20T09:58:54;-1.10;99.90
12335;DHT22;6233;51.560;9.986;2022-11-20T10:01:57;-0.90;99.90
12335;DHT22;6233;51.560;9.986;2022-11-20T10:05:27;-0.70;99.90
12335;DHT22;6233;51.560;9.986;2022-11-20T10:08:43;-0.50;99.90
12335;DHT22;6233;51.560;9.986;2022-11-20T10:32:37;0.20;99.90
12335;DHT22;6233;51.560;9.986;2022-11-20T10:39:14;0.40;99.90
12335;DHT22;6233;51.560;9.986;2022-11-20T10:45:56;0.50;99.90
12335;DHT22;6233;51.560;9.986;2022-11-20T10:48:59;0.60;99.90
12335;DHT22;6233;51.560;9.986;2022-11-20T10:56:14;0.70;99.90
12335;DHT22;6233;51.560;9.986;2022-11-20T11:02:56;0.70;99.90
12335;DHT22;6233;51.560;9.986;2022-11-20T11:06:29;0.70;99.90
12335;DHT22;6233;51.560;9.986;2022-11-20T11:09:38;0.70;99.90
12335;DHT22;6233;51.560;9.986;2022-11-20T11:12:45;0.70;99.90
12335;DHT22;6233;51.560;9.986;2022-11-20T11:15:47;1.20;99.90
12335;DHT22;6233;51.560;9.986;2022-11-20T11:18:49;1.20;99.90
12335;DHT22;6233;51.560;9.986;2022-11-20T11:21:55;0.60;99.90
12335;DHT22;6233;51.560;9.986;2022-11-20T11:25:00;1.00;99.90
12335;DHT22;6233;51.560;9.986;2022-11-20T11:28:17;1.20;99.90
12335;DHT22;6233;51.560;9.986;2022-11-20T11:31:31;0.80;99.90
12335;DHT22;6233;51.560;9.986;2022-11-20T11:34:34;0.70;99.90
12335;DHT22;6233;51.560;9.986;2022-11-20T11:37:38;0.60;99.90
12335;DHT22;6233;51.560;9.986;2022-11-20T11:40:40;0.90;99.90
12335;DHT22;6233;51.560;9.986;2022-11-20T11:43:52;0.40;99.90
12335;DHT22;6233;51.560;9.986;2022-11-20T11:50:24;0.40;99.90
12335;DHT22;6233;51.560;9.986;2022-11-20T11:53:27;0.20;99.90
12335;DHT22;6233;51.560;9.986;2022-11-20T11:56:30;0.20;99.90
12335;DHT22;6233;51.560;9.986;2022-11-20T11:59:54;0.10;99.90
12335;DHT22;6233;51.560;9.986;2022-11-20T12:03:13;0.10;99.90
12335;DHT22;6233;51.560;9.986;2022-11-20T12:06:17;0.10;99.90
12335;DHT22;6233;51.560;9.986;2022-11-20T12:09:21;0.10;99.90
12335;DHT22;6233;51.560;9.986;2022-11-20T12:12:31;0.10;99.90
12335;DHT22;6233;51.560;9.986;2022-11-20T12:15:39;0.10;99.90
12335;DHT22;6233;51.560;9.986;2022-11-20T12:18:48;0.20;99.90
12335;DHT22;6233;51.560;9.986;2022-11-20T12:21:58;0.10;99.90
12335;DHT22;6233;51.560;9.986;2022-11-20T12:25:16;0.00;99.90
12335;DHT22;6233;51.560;9.986;2022-11-20T12:28:26;0.10;99.90
12335;DHT22;6233;51.560;9.986;2022-11-20T12:31:53;0.10;99.90
12335;DHT22;6233;51.560;9.986;2022-11-20T12:38:55;0.10;99.90
12335;DHT22;6233;51.560;9.986;2022-11-20T12:53:05;0.10;99.90
12335;DHT22;6233;51.560;9.986;2022-11-20T12:56:37;0.10;99.90
12335;DHT22;6233;51.560;9.986;2022-11-20T13:00:08;0.10;99.90
12335;DHT22;6233;51.560;9.986;2022-11-20T13:03:38;0.10;99.90
12335;DHT22;6233;51.560;9.986;2022-11-20T13:06:50;0.10;99.90
12335;DHT22;6233;51.560;9.986;2022-11-20T13:09:53;0.10;99.90
12335;DHT22;6233;51.560;9.986;2022-11-20T13:13:15;0.00;99.90
12335;DHT22;6233;51.560;9.986;2022-11-20T13:16:33;0.10;99.90
12335;DHT22;6233;51.560;9.986;2022-11-20T13:19:39;0.10;99.90
12335;DHT22;6233;51.560;9.986;2022-11-20T13:22:48;0.10;99.90
12335;DHT22;6233;51.560;9.986;2022-11-20T13:25:50;0.10;99.90
12335;DHT22;6233;51.560;9.986;2022-11-20T13:29:16;0.10;99.90
12335;DHT22;6233;51.560;9.986;2022-11-20T13:32:21;0.10;99.90
12335;DHT22;6233;51.560;9.986;2022-11-20T13:35:34;0.10;99.90
12335;DHT22;6233;51.560;9.986;2022-11-20T13:38:51;0.10;99.90
12335;DHT22;6233;51.560;9.986;2022-11-20T13:42:01;0.00;99.90
12335;DHT22;6233;51.560;9.986;2022-11-20T13:45:10;0.00;99.90
12335;DHT22;6233;51.560;9.986;2022-11-20T13:48:24;0.00;99.90
12335;DHT22;6233;51.560;9.986;2022-11-20T13:51:48;-0.10;99.90
12335;DHT22;6233;51.560;9.986;2022-11-20T14:01:54;0.00;99.90
12335;DHT22;6233;51.560;9.986;2022-11-20T14:04:58;-0.10;99.90
12335;DHT22;6233;51.560;9.986;2022-11-20T14:08:03;-0.10;99.90
12335;DHT22;6233;51.560;9.986;2022-11-20T14:14:28;0.00;99.90
12335;DHT22;6233;51.560;9.986;2022-11-20T14:17:34;0.40;99.90
12335;DHT22;6233;51.560;9.986;2022-11-20T14:20:40;-0.10;99.90
12335;DHT22;6233;51.560;9.986;2022-11-20T14:23:43;0.40;99.90
12335;DHT22;6233;51.560;9.986;2022-11-20T14:26:45;0.10;99.90
12335;DHT22;6233;51.560;9.986;2022-11-20T14:29:50;-0.10;99.90
12335;DHT22;6233;51.560;9.986;2022-11-20T14:33:00;0.30;99.90
12335;DHT22;6233;51.560;9.986;2022-11-20T14:36:15;0.20;99.90
12335;DHT22;6233;51.560;9.986;2022-11-20T14:39:32;0.10;99.90
12335;DHT22;6233;51.560;9.986;2022-11-20T14:42:35;-0.20;99.90
12335;DHT22;6233;51.560;9.986;2022-11-20T14:45:44;-0.20;99.90
12335;DHT22;6233;51.560;9.986;2022-11-20T14:48:52;0.00;99.90
12335;DHT22;6233;51.560;9.986;2022-11-20T14:52:14;0.00;99.90
12335;DHT22;6233;51.560;9.986;2022-11-20T14:55:32;-0.10;99.90
12335;DHT22;6233;51.560;9.986;2022-11-20T14:58:34;-0.20;99.90
12335;DHT22;6233;51.560;9.986;2022-11-20T15:01:36;0.10;99.90
12335;DHT22;6233;51.560;9.986;2022-11-20T15:04:50;-0.10;99.90
12335;DHT22;6233;51.560;9.986;2022-11-20T15:08:07;-0.40;99.90
12335;DHT22;6233;51.560;9.986;2022-11-20T15:11:28;-0.40;99.90
12335;DHT22;6233;51.560;9.986;2022-11-20T15:14:31;-0.40;99.90
12335;DHT22;6233;51.560;9.986;2022-11-20T15:17:37;-0.40;99.90
12335;DHT22;6233;51.560;9.986;2022-11-20T15:20:43;-0.50;99.90
12335;DHT22;6233;51.560;9.986;2022-11-20T15:23:45;-0.70;99.90
12335;DHT22;6233;51.560;9.986;2022-11-20T15:26:47;-0.50;99.90
12335;DHT22;6233;51.560;9.986;2022-11-20T15:29:49;-0.60;99.90
12335;DHT22;6233;51.560;9.986;2022-11-20T15:32:51;-0.40;99.90
12335;DHT22;6233;51.560;9.986;2022-11-20T15:35:53;-0.70;99.90
12335;DHT22;6233;51.560;9.986;2022-11-20T15:38:54;-0.60;99.90
12335;DHT22;6233;51.560;9.986;2022-11-20T15:41:58;-0.70;99.90
12335;DHT22;6233;51.560;9.986;2022-11-20T15:45:00;-0.70;99.90
12335;DHT22;6233;51.560;9.986;2022-11-20T15:48:02;-0.70;99.90
12335;DHT22;6233;51.560;9.986;2022-11-20T15:54:19;-0.60;99.90
12335;DHT22;6233;51.560;9.986;2022-11-20T15:57:24;-0.60;99.90
12335;DHT22;6233;51.560;9.986;2022-11-20T16:00:26;-0.60;99.90
12335;DHT22;6233;51.560;9.986;2022-11-20T16:03:28;-0.60;99.90
12335;DHT22;6233;51.560;9.986;2022-11-20T16:06:30;-0.70;99.90
12335;DHT22;6233;51.560;9.986;2022-11-20T16:09:32;-0.70;99.90
12335;DHT22;6233;51.560;9.986;2022-11-20T16:12:37;-0.60;99.90
12335;DHT22;6233;51.560;9.986;2022-11-20T16:15:58;-0.20;99.90
12335;DHT22;6233;51.560;9.986;2022-11-20T16:19:01;-0.60;99.90
12335;DHT22;6233;51.560;9.986;2022-11-20T16:22:03;-0.60;99.90
12335;DHT22;6233;51.560;9.986;2022-11-20T16:25:05;-0.60;99.90
12335;DHT22;6233;51.560;9.986;2022-11-20T16:28:07;-0.50;99.90
12335;DHT22;6233;51.560;9.986;2022-11-20T16:31:13;-0.70;99.90
12335;DHT22;6233;51.560;9.986;2022-11-20T16:34:16;-0.60;99.90
12335;DHT22;6233;51.560;9.986;2022-11-20T16:37:18;-0.50;99.90
12335;DHT22;6233;51.560;9.986;2022-11-20T16:40:20;-0.70;99.90
12335;DHT22;6233;51.560;9.986;2022-11-20T16:43:22;-0.50;99.90
12335;DHT22;6233;51.560;9.986;2022-11-20T16:46:25;-0.50;99.90
12335;DHT22;6233;51.560;9.986;2022-11-20T16:49:27;-0.50;99.90
12335;DHT22;6233;51.560;9.986;2022-11-20T16:52:30;-0.40;99.90
12335;DHT22;6233;51.560;9.986;2022-11-20T16:55:31;-0.50;99.90
12335;DHT22;6233;51.560;9.986;2022-11-20T16:58:33;0.10;99.90
12335;DHT22;6233;51.560;9.986;2022-11-20T17:01:35;-0.40;99.90
12335;DHT22;6233;51.560;9.986;2022-11-20T17:04:40;-0.30;99.90
12335;DHT22;6233;51.560;9.986;2022-11-20T17:07:42;-0.10;99.90
12335;DHT22;6233;51.560;9.986;2022-11-20T17:10:44;0.10;99.90
12335;DHT22;6233;51.560;9.986;2022-11-20T17:13:46;0.20;99.90
12335;DHT22;6233;51.560;9.986;2022-11-20T17:16:51;-0.20;99.90
12335;DHT22;6233;51.560;9.986;2022-11-20T17:19:53;0.10;99.90
12335;DHT22;6233;51.560;9.986;2022-11-20T17:22:55;0.20;99.90
12335;DHT22;6233;51.560;9.986;2022-11-20T17:26:05;0.00;99.90
12335;DHT22;6233;51.560;9.986;2022-11-20T17:29:13;-0.30;99.90
12335;DHT22;6233;51.560;9.986;2022-11-20T17:32:15;-0.10;99.90
12335;DHT22;6233;51.560;9.986;2022-11-20T17:35:17;-0.10;99.90
12335;DHT22;6233;51.560;9.986;2022-11-20T17:38:19;0.00;99.90
12335;DHT22;6233;51.560;9.986;2022-11-20T17:41:25;-0.20;99.90
12335;DHT22;6233;51.560;9.986;2022-11-20T17:44:27;0.30;99.90
12335;DHT22;6233;51.560;9.986;2022-11-20T17:47:28;-0.10;99.90
12335;DHT22;6233;51.560;9.986;2022-11-20T17:50:30;-0.10;99.90
12335;DHT22;6233;51.560;9.986;2022-11-20T17:53:34;-0.10;99.90
12335;DHT22;6233;51.560;9.986;2022-11-20T17:56:36;-0.10;99.90
12335;DHT22;6233;51.560;9.986;2022-11-20T17:59:56;-0.10;99.90
12335;DHT22;6233;51.560;9.986;2022-11-20T18:02:58;0.00;99.90
12335;DHT22;6233;51.560;9.986;2022-11-20T18:06:21;0.10;99.90
12335;DHT22;6233;51.560;9.986;2022-11-20T18:09:23;0.20;99.90
12335;DHT22;6233;51.560;9.986;2022-11-20T18:12:25;0.30;99.90
12335;DHT22;6233;51.560;9.986;2022-11-20T18:15:27;0.20;99.90
12335;DHT22;6233;51.560;9.986;2022-11-20T18:18:30;0.10;99.90
12335;DHT22;6233;51.560;9.986;2022-11-20T18:21:31;0.00;99.90
12335;DHT22;6233;51.560;9.986;2022-11-20T18:24:37;0.30;99.90
12335;DHT22;6233;51.560;9.986;2022-11-20T18:27:43;0.40;99.90
12335;DHT22;6233;51.560;9.986;2022-11-20T18:30:44;0.40;99.90
12335;DHT22;6233;51.560;9.986;2022-11-20T18:33:46;0.10;99.90
12335;DHT22;6233;51.560;9.986;2022-11-20T18:36:51;0.10;99.90
12335;DHT22;6233;51.560;9.986;2022-11-20T18:39:53;0.30;99.90
12335;DHT22;6233;51.560;9.986;2022-11-20T18:42:56;0.40;99.90
12335;DHT22;6233;51.560;9.986;2022-11-20T18:46:20;0.20;99.90
12335;DHT22;6233;51.560;9.986;2022-11-20T18:49:25;0.30;99.90
12335;DHT22;6233;51.560;9.986;2022-11-20T18:52:38;0.40;99.90
12335;DHT22;6233;51.560;9.986;2022-11-20T18:55:40;0.30;99.90
12335;DHT22;6233;51.560;9.986;2022-11-20T18:58:48;0.30;99.90
12335;DHT22;6233;51.560;9.986;2022-11-20T19:01:55;0.30;99.90
12335;DHT22;6233;51.560;9.986;2022-11-20T19:04:57;0.40;99.90
12335;DHT22;6233;51.560;9.986;2022-11-20T19:07:58;0.20;99.90
12335;DHT22;6233;51.560;9.986;2022-11-20T19:11:08;0.50;99.90
12335;DHT22;6233;51.560;9.986;2022-11-20T19:14:10;0.40;99.90
12335;DHT22;6233;51.560;9.986;2022-11-20T19:17:12;0.30;99.90
12335;DHT22;6233;51.560;9.986;2022-11-20T19:20:21;0.10;99.90
12335;DHT22;6233;51.560;9.986;2022-11-20T19:23:26;0.30;99.90
12335;DHT22;6233;51.560;9.986;2022-11-20T19:26:28;0.40;99.90
12335;DHT22;6233;51.560;9.986;2022-11-20T19:29:30;0.20;99.90
12335;DHT22;6233;51.560;9.986;2022-11-20T19:32:32;0.20;99.90
12335;DHT22;6233;51.560;9.986;2022-11-20T19:35:38;0.60;99.90
12335;DHT22;6233;51.560;9.986;2022-11-20T19:38:47;0.10;99.90
12335;DHT22;6233;51.560;9.986;2022-11-20T19:41:51;0.10;99.90
12335;DHT22;6233;51.560;9.986;2022-11-20T19:44:53;0.40;99.90
12335;DHT22;6233;51.560;9.986;2022-11-20T19:47:56;0.10;99.90
12335;DHT22;6233;51.560;9.986;2022-11-20T19:55:16;0.30;99.90
12335;DHT22;6233;51.560;9.986;2022-11-20T19:58:21;-0.10;99.90
12335;DHT22;6233;51.560;9.986;2022-11-20T20:01:25;0.50;99.90
12335;DHT22;6233;51.560;9.986;2022-11-20T20:04:27;0.00;99.90
12335;DHT22;6233;51.560;9.986;2022-11-20T20:07:29;0.30;99.90
12335;DHT22;6233;51.560;9.986;2022-11-20T20:10:37;0.10;99.90
12335;DHT22;6233;51.560;9.986;2022-11-20T20:13:51;0.30;99.90
12335;DHT22;6233;51.560;9.986;2022-11-20T20:16:54;0.20;99.90
12335;DHT22;6233;51.560;9.986;2022-11-20T20:19:56;0.60;99.90
12335;DHT22;6233;51.560;9.986;2022-11-20T20:22:57;0.70;99.90
12335;DHT22;6233;51.560;9.986;2022-11-20T20:25:59;0.30;99.90
12335;DHT22;6233;51.560;9.986;2022-11-20T20:29:08;-0.10;99.90
12335;DHT22;6233;51.560;9.986;2022-11-20T20:32:09;-0.10;99.90
12335;DHT22;6233;51.560;9.986;2022-11-20T20:35:11;-0.20;99.90
12335;DHT22;6233;51.560;9.986;2022-11-20T20:38:13;0.00;99.90
12335;DHT22;6233;51.560;9.986;2022-11-20T20:41:18;-0.30;99.90
12335;DHT22;6233;51.560;9.986;2022-11-20T20:44:20;-0.30;99.90
12335;DHT22;6233;51.560;9.986;2022-11-20T20:47:40;-0.30;99.90
12335;DHT22;6233;51.560;9.986;2022-11-20T20:50:58;-0.20;99.90
12335;DHT22;6233;51.560;9.986;2022-11-20T20:54:02;-0.20;99.90
12335;DHT22;6233;51.560;9.986;2022-11-20T20:57:04;-0.40;99.90
12335;DHT22;6233;51.560;9.986;2022-11-20T21:00:06;-0.20;99.90
12335;DHT22;6233;51.560;9.986;2022-11-20T21:03:09;-0.20;99.90
12335;DHT22;6233;51.560;9.986;2022-11-20T21:06:11;-0.30;99.90
12335;DHT22;6233;51.560;9.986;2022-11-20T21:09:14;-0.40;99.90
12335;DHT22;6233;51.560;9.986;2022-11-20T21:12:16;-0.40;99.90
12335;DHT22;6233;51.560;9.986;2022-11-20T21:15:17;-0.30;99.90
12335;DHT22;6233;51.560;9.986;2022-11-20T21:18:20;-0.30;99.90
12335;DHT22;6233;51.560;9.986;2022-11-20T21:21:57;-0.40;99.90